Time;durP1;ratioP1;P1;durP2;ratioP2;P2;SDS_P1;SDS_P2;PMS_P1;PMS_P2;Temp;Humidity;BMP_temperature;BMP_pressure;BME280_temperature;BME280_humidity;BME280_pressure;Samples;Min_cycle;Max_cycle;Signal;HPM_P1;HPM_P2
2022/11/19 00:00:16;;;;;;;5.93;2.20;;;;;;;;;;4991346;28;20221;-90
2022/11/19 00:03:21;;;;;;;4.70;2.10;;;;;;;;;;4985139;28;20200;-90
2022/11/19 00:06:26;;;;;;;4.43;1.67;;;;;;;;;;5011227;28;20173;-90
2022/11/19 00:09:31;;;;;;;5.77;2.03;;;;;;;;;;4991231;28;20221;-90
2022/11/19 00:12:53;;;;;;;2.97;1.50;;;;;;;;;;4980556;28;20185;-90
2022/11/19 00:16:06;;;;;;;2.07;1.60;;;;;;;;;;4981574;28;20214;-90
2022/11/19 00:19:10;;;;;;;4.07;1.70;;;;;;;;;;5011837;28;20181;-90
2022/11/19 00:22:14;;;;;;;8.60;1.90;;;;;;;;;;5004832;28;20201;-90
2022/11/19 00:25:23;;;;;;;2.40;1.80;;;;;;;;;;5014291;28;20185;-90
2022/11/19 00:28:27;;;;;;;3.57;1.60;;;;;;;;;;5013748;28;20190;-90
2022/11/19 00:31:31;;;;;;;2.23;1.57;;;;;;;;;;5002280;28;20217;-90
2022/11/19 00:34:35;;;;;;;2.60;1.50;;;;;;;;;;5013859;28;20202;-90
2022/11/19 00:37:40;;;;;;;4.00;1.80;;;;;;;;;;4991202;28;20222;-90
2022/11/19 00:40:43;;;;;;;2.77;1.40;;;;;;;;;;5001848;28;20217;-90
2022/11/19 00:43:51;;;;;;;4.33;1.90;;;;;;;;;;4991173;28;20197;-90
2022/11/19 00:46:55;;;;;;;2.07;1.60;;;;;;;;;;4991157;28;20193;-90
2022/11/19 00:49:59;;;;;;;2.20;1.47;;;;;;;;;;5005507;28;20705;-90
2022/11/19 00:53:03;;;;;;;4.27;2.10;;;;;;;;;;5017144;28;20648;-90
2022/11/19 00:56:12;;;;;;;1.63;1.50;;;;;;;;;;5005833;28;20225;-89
2022/11/19 00:59:16;;;;;;;6.27;2.27;;;;;;;;;;5016532;28;20641;-89
2022/11/19 01:02:20;;;;;;;3.20;1.80;;;;;;;;;;4994171;28;20218;-90
2022/11/19 01:05:25;;;;;;;5.53;2.03;;;;;;;;;;5005893;28;20616;-89
2022/11/19 01:08:29;;;;;;;4.80;1.77;;;;;;;;;;5005305;28;20541;-90
2022/11/19 01:11:35;;;;;;;8.57;2.30;;;;;;;;;;5017180;28;20201;-90
2022/11/19 01:14:39;;;;;;;3.17;1.77;;;;;;;;;;5016660;28;20181;-89
2022/11/19 01:17:43;;;;;;;4.50;1.70;;;;;;;;;;5016268;28;20205;-90
2022/11/19 01:20:47;;;;;;;3.20;1.80;;;;;;;;;;5005025;28;20221;-90
2022/11/19 01:23:51;;;;;;;2.17;1.60;;;;;;;;;;4993682;28;20181;-89
2022/11/19 01:26:56;;;;;;;2.73;1.83;;;;;;;;;;5016633;28;20173;-89
2022/11/19 01:30:00;;;;;;;4.13;1.80;;;;;;;;;;5005019;28;20225;-89
2022/11/19 01:33:04;;;;;;;2.30;1.90;;;;;;;;;;5016342;28;20189;-90
2022/11/19 01:36:17;;;;;;;3.27;1.40;;;;;;;;;;5015682;28;20676;-90
2022/11/19 01:39:22;;;;;;;4.20;1.87;;;;;;;;;;4993223;28;20190;-89
2022/11/19 01:45:53;;;;;;;1.63;1.43;;;;;;;;;;5015754;28;20186;-90
2022/11/19 01:49:04;;;;;;;2.40;1.60;;;;;;;;;;5015916;28;20201;-90
2022/11/19 01:52:09;;;;;;;2.10;1.50;;;;;;;;;;5015639;28;20186;-90
2022/11/19 01:55:16;;;;;;;2.60;1.40;;;;;;;;;;5004274;28;20197;-90
2022/11/19 01:58:23;;;;;;;2.53;1.57;;;;;;;;;;4992656;28;20194;-89
2022/11/19 02:01:28;;;;;;;4.30;1.50;;;;;;;;;;5015138;28;20213;-90
2022/11/19 02:04:34;;;;;;;1.83;1.47;;;;;;;;;;5004181;28;20544;-89
2022/11/19 02:07:42;;;;;;;1.87;1.70;;;;;;;;;;5015372;28;20193;-89
2022/11/19 02:10:57;;;;;;;2.83;1.30;;;;;;;;;;5003741;28;20209;-89
2022/11/19 02:14:19;;;;;;;2.73;1.40;;;;;;;;;;5015543;28;20201;-89
2022/11/19 02:17:47;;;;;;;3.77;1.77;;;;;;;;;;5043585;28;20212;-89
2022/11/19 02:21:20;;;;;;;2.13;1.63;;;;;;;;;;5021240;28;20599;-90
2022/11/19 02:24:50;;;;;;;5.37;2.00;;;;;;;;;;5021194;28;20180;-90
2022/11/19 02:28:06;;;;;;;2.10;1.90;;;;;;;;;;5021255;28;20176;-90
2022/11/19 02:31:23;;;;;;;1.63;1.40;;;;;;;;;;5020716;28;20220;-90
2022/11/19 02:34:30;;;;;;;4.47;1.63;;;;;;;;;;5020772;28;20522;-89
2022/11/19 02:37:59;;;;;;;2.27;1.53;;;;;;;;;;5032011;28;20208;-90
2022/11/19 02:41:32;;;;;;;3.13;2.10;;;;;;;;;;5021208;28;20215;-90
2022/11/19 02:45:01;;;;;;;3.53;2.03;;;;;;;;;;5031983;28;20180;-89
2022/11/19 02:48:12;;;;;;;4.07;2.33;;;;;;;;;;5020557;28;20180;-89
2022/11/19 02:51:18;;;;;;;5.73;2.40;;;;;;;;;;5020239;28;20215;-89
2022/11/19 02:54:23;;;;;;;4.47;2.97;;;;;;;;;;5020611;28;20207;-90
2022/11/19 02:57:28;;;;;;;3.73;3.13;;;;;;;;;;5020862;28;20204;-89
2022/11/19 03:07:30;;;;;;;6.13;2.60;;;;;;;;;;5031354;28;20177;-89
2022/11/19 03:10:55;;;;;;;6.13;3.27;;;;;;;;;;5031253;28;20207;-90
2022/11/19 03:17:49;;;;;;;4.60;2.90;;;;;;;;;;5030537;28;20200;-89
2022/11/19 03:21:14;;;;;;;4.60;3.13;;;;;;;;;;5030782;28;20212;-90
2022/11/19 03:24:44;;;;;;;4.33;3.00;;;;;;;;;;5019585;28;20189;-90
2022/11/19 03:27:52;;;;;;;6.77;3.23;;;;;;;;;;5019864;28;20176;-90
2022/11/19 03:30:59;;;;;;;3.53;2.73;;;;;;;;;;5031073;28;20216;-90
2022/11/19 03:34:10;;;;;;;4.00;2.90;;;;;;;;;;4997670;28;20673;-90
2022/11/19 03:37:18;;;;;;;3.30;2.67;;;;;;;;;;5022123;28;20220;-90
2022/11/19 03:40:25;;;;;;;4.33;2.93;;;;;;;;;;4999218;28;20228;-90
2022/11/19 03:43:34;;;;;;;4.70;2.80;;;;;;;;;;5001715;28;20652;-90
2022/11/19 03:46:40;;;;;;;7.07;3.20;;;;;;;;;;5002238;28;20182;-90
2022/11/19 03:49:50;;;;;;;5.03;2.97;;;;;;;;;;4984293;28;20224;-89
2022/11/19 03:52:56;;;;;;;6.80;3.17;;;;;;;;;;4999597;28;20184;-89
2022/11/19 03:56:03;;;;;;;4.27;3.10;;;;;;;;;;4999598;28;20196;-90
2022/11/19 03:59:10;;;;;;;4.57;2.37;;;;;;;;;;5010228;28;20197;-89
2022/11/19 04:02:15;;;;;;;4.10;3.07;;;;;;;;;;4999232;28;20180;-90
2022/11/19 04:05:19;;;;;;;3.80;2.90;;;;;;;;;;4999582;28;20205;-90
2022/11/19 04:08:23;;;;;;;4.27;2.77;;;;;;;;;;4999096;28;20197;-89
2022/11/19 04:11:27;;;;;;;6.37;3.23;;;;;;;;;;5010459;28;20220;-90
2022/11/19 04:14:32;;;;;;;4.87;3.00;;;;;;;;;;4999077;28;20204;-90
2022/11/19 04:17:36;;;;;;;5.07;2.97;;;;;;;;;;4994117;28;20698;-90
2022/11/19 04:20:42;;;;;;;6.93;2.87;;;;;;;;;;4997772;28;20216;-89
2022/11/19 04:23:46;;;;;;;6.83;2.87;;;;;;;;;;5004116;28;20178;-90
2022/11/19 04:26:50;;;;;;;8.13;3.13;;;;;;;;;;5016896;28;20173;-90
2022/11/19 04:29:54;;;;;;;5.67;2.70;;;;;;;;;;5013978;28;20220;-90
2022/11/19 04:32:59;;;;;;;7.33;3.00;;;;;;;;;;5025923;28;20180;-89
2022/11/19 04:36:03;;;;;;;5.27;2.77;;;;;;;;;;5014251;28;20185;-90
2022/11/19 04:39:09;;;;;;;6.57;3.00;;;;;;;;;;5014000;28;20533;-90
2022/11/19 04:42:13;;;;;;;3.83;2.60;;;;;;;;;;5014233;28;20193;-90
2022/11/19 04:45:17;;;;;;;5.77;2.70;;;;;;;;;;5002955;28;20177;-90
2022/11/19 04:48:22;;;;;;;5.67;3.00;;;;;;;;;;4994857;28;20170;-90
2022/11/19 04:51:26;;;;;;;5.03;2.63;;;;;;;;;;4983037;28;20213;-89
2022/11/19 04:54:30;;;;;;;6.00;2.60;;;;;;;;;;4994087;28;20177;-90
2022/11/19 04:57:35;;;;;;;4.03;3.20;;;;;;;;;;4982986;28;20213;-90
2022/11/19 05:00:40;;;;;;;3.77;2.50;;;;;;;;;;4983168;28;20221;-90
2022/11/19 05:03:44;;;;;;;4.07;2.40;;;;;;;;;;4983593;28;20173;-89
2022/11/19 05:06:49;;;;;;;4.00;2.40;;;;;;;;;;4994798;28;20197;-89
2022/11/19 05:09:53;;;;;;;2.80;2.40;;;;;;;;;;4983091;28;20225;-89
2022/11/19 05:12:57;;;;;;;4.57;2.33;;;;;;;;;;4983467;28;20548;-89
2022/11/19 05:16:02;;;;;;;2.67;1.80;;;;;;;;;;4982920;28;20193;-89
2022/11/19 05:19:06;;;;;;;2.60;2.00;;;;;;;;;;4982750;28;20225;-89
2022/11/19 05:22:11;;;;;;;2.30;1.90;;;;;;;;;;4982601;28;20177;-89
2022/11/19 05:25:15;;;;;;;3.63;2.10;;;;;;;;;;4982847;28;20182;-89
2022/11/19 05:28:19;;;;;;;3.43;2.23;;;;;;;;;;4993480;28;20178;-89
2022/11/19 05:31:23;;;;;;;4.40;1.90;;;;;;;;;;4982111;28;20213;-89
2022/11/19 05:34:28;;;;;;;2.47;2.03;;;;;;;;;;4981648;28;20177;-89
2022/11/19 05:37:32;;;;;;;2.07;1.87;;;;;;;;;;4993923;28;20210;-89
2022/11/19 05:40:37;;;;;;;1.93;1.53;;;;;;;;;;4982342;28;20221;-89
2022/11/19 05:43:41;;;;;;;1.73;1.40;;;;;;;;;;4982672;28;20178;-89
2022/11/19 05:46:45;;;;;;;2.03;1.50;;;;;;;;;;4993079;28;20197;-89
2022/11/19 05:49:49;;;;;;;1.30;1.20;;;;;;;;;;4993237;28;20675;-89
2022/11/19 05:52:53;;;;;;;3.43;1.60;;;;;;;;;;4981942;28;20267;-89
2022/11/19 05:55:58;;;;;;;1.40;1.30;;;;;;;;;;4981783;28;20181;-89
2022/11/19 05:59:02;;;;;;;2.90;1.60;;;;;;;;;;4992513;28;20671;-89
2022/11/19 06:02:07;;;;;;;5.87;3.87;;;;;;;;;;4981785;28;20182;-89
2022/11/19 06:05:12;;;;;;;2.37;1.37;;;;;;;;;;5009800;28;20204;-84
2022/11/19 06:08:16;;;;;;;1.87;1.57;;;;;;;;;;5005530;28;20555;-84
2022/11/19 06:14:43;;;;;;;2.50;1.53;;;;;;;;;;5013429;28;20207;-86
2022/11/19 06:17:47;;;;;;;1.10;1.00;;;;;;;;;;5000648;28;20212;-85
2022/11/19 06:20:51;;;;;;;1.27;1.00;;;;;;;;;;5001806;28;20217;-86
2022/11/19 06:23:56;;;;;;;1.20;1.10;;;;;;;;;;5012884;28;20185;-86
2022/11/19 06:27:00;;;;;;;2.17;1.40;;;;;;;;;;5001431;28;20185;-86
2022/11/19 06:30:06;;;;;;;2.53;1.93;;;;;;;;;;5001735;28;20212;-86
2022/11/19 06:33:10;;;;;;;2.67;2.00;;;;;;;;;;5001461;28;20176;-85
2022/11/19 06:36:14;;;;;;;5.47;3.90;;;;;;;;;;5000759;28;20173;-86
2022/11/19 06:39:19;;;;;;;3.50;2.67;;;;;;;;;;5000972;28;20209;-86
2022/11/19 06:42:56;;;;;;;2.53;2.00;;;;;;;;;;5013731;28;20548;-86
2022/11/19 06:45:54;;;;;;;3.60;2.30;;;;;;;;;;5023296;28;20188;-86
2022/11/19 06:48:58;;;;;;;1.87;1.50;;;;;;;;;;5000703;28;20185;-86
2022/11/19 06:52:02;;;;;;;2.73;1.70;;;;;;;;;;5012030;28;20181;-86
2022/11/19 06:55:07;;;;;;;2.10;1.50;;;;;;;;;;5001111;28;20184;-86
2022/11/19 06:58:13;;;;;;;5.27;1.77;;;;;;;;;;5000780;28;20217;-86
2022/11/19 07:01:17;;;;;;;1.80;1.70;;;;;;;;;;5000567;28;20224;-86
2022/11/19 07:04:21;;;;;;;1.77;1.20;;;;;;;;;;5001028;28;20185;-86
2022/11/19 07:07:26;;;;;;;2.30;1.83;;;;;;;;;;5000643;28;20547;-87
2022/11/19 07:10:32;;;;;;;2.20;1.80;;;;;;;;;;5000587;28;20238;-86
2022/11/19 07:16:58;;;;;;;2.90;1.97;;;;;;;;;;5013292;28;20181;-86
2022/11/19 07:20:04;;;;;;;4.00;1.73;;;;;;;;;;5001447;28;20216;-85
2022/11/19 07:23:09;;;;;;;2.30;1.67;;;;;;;;;;5001051;28;20196;-85
2022/11/19 07:26:14;;;;;;;4.90;2.63;;;;;;;;;;5002904;28;20189;-84
2022/11/19 07:29:18;;;;;;;2.77;2.47;;;;;;;;;;5003141;28;20172;-85
2022/11/19 07:32:22;;;;;;;4.23;3.10;;;;;;;;;;5026788;28;20176;-85
2022/11/19 07:35:26;;;;;;;4.73;3.20;;;;;;;;;;5016037;28;20184;-84
2022/11/19 07:38:30;;;;;;;10.03;6.60;;;;;;;;;;5001119;28;20204;-86
2022/11/19 07:44:57;;;;;;;6.70;5.07;;;;;;;;;;5013229;28;20177;-86
2022/11/19 07:48:02;;;;;;;7.03;4.73;;;;;;;;;;5012707;28;20181;-86
2022/11/19 07:51:06;;;;;;;7.57;5.83;;;;;;;;;;5000864;28;20557;-86
2022/11/19 07:54:11;;;;;;;7.67;6.07;;;;;;;;;;5023139;28;20180;-86
2022/11/19 07:57:16;;;;;;;4.40;3.57;;;;;;;;;;5000698;28;20616;-85
2022/11/19 08:00:20;;;;;;;6.23;4.13;;;;;;;;;;5003994;28;20706;-85
2022/11/19 08:03:24;;;;;;;3.50;2.63;;;;;;;;;;5004108;28;20181;-86
2022/11/19 08:06:29;;;;;;;4.00;2.50;;;;;;;;;;5005160;28;20196;-86
2022/11/19 08:09:33;;;;;;;3.60;2.70;;;;;;;;;;5004611;28;20212;-86
2022/11/19 08:12:37;;;;;;;4.93;2.90;;;;;;;;;;5004257;28;20177;-86
2022/11/19 08:15:41;;;;;;;4.03;3.07;;;;;;;;;;5003504;28;20181;-85
2022/11/19 08:18:45;;;;;;;6.30;2.50;;;;;;;;;;5004068;28;20212;-85
2022/11/19 08:21:50;;;;;;;3.33;2.60;;;;;;;;;;5004247;28;20180;-86
2022/11/19 08:24:54;;;;;;;2.10;1.90;;;;;;;;;;5005107;28;20182;-86
2022/11/19 08:27:58;;;;;;;1.63;1.53;;;;;;;;;;5004319;28;20652;-87
2022/11/19 08:31:07;;;;;;;2.43;1.90;;;;;;;;;;5014864;28;20216;-86
2022/11/19 08:34:13;;;;;;;2.10;1.90;;;;;;;;;;5003125;28;20648;-86
2022/11/19 08:37:17;;;;;;;2.50;1.90;;;;;;;;;;5004104;28;20177;-86
2022/11/19 08:40:22;;;;;;;2.40;1.90;;;;;;;;;;5003813;28;20680;-86
2022/11/19 08:43:26;;;;;;;2.23;1.50;;;;;;;;;;5025575;28;20177;-86
2022/11/19 08:46:30;;;;;;;1.90;1.57;;;;;;;;;;5004689;28;20574;-87
2022/11/19 08:49:34;;;;;;;3.10;2.00;;;;;;;;;;5005438;28;20212;-87
2022/11/19 08:52:38;;;;;;;2.43;2.07;;;;;;;;;;5005352;28;20173;-86
2022/11/19 08:55:42;;;;;;;3.00;2.50;;;;;;;;;;5005107;28;20628;-86
2022/11/19 08:58:47;;;;;;;3.33;2.70;;;;;;;;;;5005180;28;20221;-86
2022/11/19 09:01:51;;;;;;;4.53;2.57;;;;;;;;;;5015338;28;20185;-86
2022/11/19 09:04:56;;;;;;;2.63;2.20;;;;;;;;;;5004254;28;20181;-86
2022/11/19 09:08:00;;;;;;;4.37;2.30;;;;;;;;;;5021618;28;20192;-86
2022/11/19 09:11:10;;;;;;;4.20;2.80;;;;;;;;;;5012557;28;20216;-86
2022/11/19 09:14:15;;;;;;;3.47;2.47;;;;;;;;;;5015251;28;20185;-87
2022/11/19 09:17:19;;;;;;;3.90;3.00;;;;;;;;;;5024461;28;20181;-86
2022/11/19 09:20:24;;;;;;;4.80;3.60;;;;;;;;;;5011758;28;20228;-86
2022/11/19 09:23:28;;;;;;;3.80;2.93;;;;;;;;;;5010413;28;20188;-86
2022/11/19 09:26:32;;;;;;;3.20;2.90;;;;;;;;;;5021709;28;20655;-86
2022/11/19 09:29:37;;;;;;;2.10;1.80;;;;;;;;;;5021472;28;20213;-86
2022/11/19 09:32:41;;;;;;;3.13;1.70;;;;;;;;;;5020786;28;20176;-85
2022/11/19 09:35:52;;;;;;;2.27;1.70;;;;;;;;;;5008231;28;20188;-85
2022/11/19 09:38:57;;;;;;;2.40;1.70;;;;;;;;;;5008192;28;20209;-85
2022/11/19 09:43:00;;;;;;;3.80;1.90;;;;;;;;;;5007644;28;20173;-85
2022/11/19 09:46:33;;;;;;;6.93;4.27;;;;;;;;;;4966137;28;20194;-84
2022/11/19 09:49:44;;;;;;;16.17;8.60;;;;;;;;;;4996262;28;20216;-85
2022/11/19 09:53:15;;;;;;;24.10;10.73;;;;;;;;;;5016533;28;20636;-85
2022/11/19 09:56:44;;;;;;;5.13;3.10;;;;;;;;;;5016010;28;20181;-88
2022/11/19 09:59:56;;;;;;;5.73;3.47;;;;;;;;;;5016052;28;20216;-87
2022/11/19 10:03:10;;;;;;;6.67;3.23;;;;;;;;;;5004221;28;20185;-87
2022/11/19 10:06:14;;;;;;;4.77;3.63;;;;;;;;;;5004023;28;20185;-87
2022/11/19 10:09:41;;;;;;;8.23;4.70;;;;;;;;;;5014344;28;20197;-87
2022/11/19 10:13:11;;;;;;;6.47;4.67;;;;;;;;;;5002553;28;20181;-87
2022/11/19 10:16:53;;;;;;;5.07;3.80;;;;;;;;;;4994523;28;20186;-87
2022/11/19 10:20:32;;;;;;;3.73;3.20;;;;;;;;;;4993204;28;20233;-87
2022/11/19 10:23:47;;;;;;;3.97;3.33;;;;;;;;;;4982101;28;20182;-87
2022/11/19 10:27:11;;;;;;;6.03;3.10;;;;;;;;;;4994680;28;20186;-87
2022/11/19 10:30:21;;;;;;;4.50;3.10;;;;;;;;;;5005166;28;20218;-84
2022/11/19 10:33:36;;;;;;;5.10;2.87;;;;;;;;;;4983345;28;20194;-86
2022/11/19 10:36:55;;;;;;;3.57;2.90;;;;;;;;;;4982291;28;20633;-86
2022/11/19 10:40:13;;;;;;;4.73;3.37;;;;;;;;;;4993554;28;20680;-86
2022/11/19 10:43:29;;;;;;;5.20;3.50;;;;;;;;;;4993326;28;20182;-86
2022/11/19 10:46:33;;;;;;;5.10;4.00;;;;;;;;;;4993184;28;20178;-85
2022/11/19 10:49:41;;;;;;;5.43;4.00;;;;;;;;;;5004280;28;20212;-87
2022/11/19 10:52:51;;;;;;;5.27;4.10;;;;;;;;;;4982398;28;20173;-87
2022/11/19 10:56:05;;;;;;;6.53;4.00;;;;;;;;;;5000664;28;20206;-87
2022/11/19 10:59:20;;;;;;;5.60;4.20;;;;;;;;;;4983103;28;20222;-89
2022/11/19 11:02:32;;;;;;;9.00;4.10;;;;;;;;;;4995082;28;20181;-87
2022/11/19 11:05:56;;;;;;;6.27;3.80;;;;;;;;;;5003838;28;20181;-86
2022/11/19 11:09:00;;;;;;;4.70;3.90;;;;;;;;;;4994435;28;20619;-86
2022/11/19 11:15:46;;;;;;;9.13;4.57;;;;;;;;;;5008141;28;20200;-86
2022/11/19 11:18:53;;;;;;;6.20;4.33;;;;;;;;;;5013007;28;20173;-87
2022/11/19 11:21:57;;;;;;;8.80;4.63;;;;;;;;;;5005303;28;20223;-87
2022/11/19 11:25:02;;;;;;;5.13;4.57;;;;;;;;;;4993074;28;20616;-86
2022/11/19 11:28:07;;;;;;;5.20;4.37;;;;;;;;;;4992381;28;20174;-86
2022/11/19 11:31:11;;;;;;;5.53;4.50;;;;;;;;;;4996723;28;20217;-87
2022/11/19 11:34:36;;;;;;;8.20;5.00;;;;;;;;;;5011555;28;20184;-88
2022/11/19 11:37:41;;;;;;;6.33;5.30;;;;;;;;;;5000843;28;20177;-87
2022/11/19 11:41:06;;;;;;;7.03;5.00;;;;;;;;;;5011344;28;20236;-87
2022/11/19 11:44:13;;;;;;;6.43;5.47;;;;;;;;;;5012283;28;20185;-88
2022/11/19 11:47:21;;;;;;;7.23;5.40;;;;;;;;;;5000615;28;20176;-87
2022/11/19 11:50:27;;;;;;;8.00;5.57;;;;;;;;;;5011096;28;20576;-86
2022/11/19 11:53:32;;;;;;;6.57;5.23;;;;;;;;;;5011434;28;20627;-84
2022/11/19 11:56:41;;;;;;;6.40;4.80;;;;;;;;;;5000239;28;20177;-88
2022/11/19 11:59:51;;;;;;;6.73;5.30;;;;;;;;;;5011770;28;20236;-91
2022/11/19 12:03:12;;;;;;;7.63;6.30;;;;;;;;;;5011779;28;20628;-90
2022/11/19 12:06:18;;;;;;;8.57;7.00;;;;;;;;;;5023255;28;20177;-89
2022/11/19 12:09:48;;;;;;;9.70;7.70;;;;;;;;;;5011123;28;20173;-91
2022/11/19 12:13:03;;;;;;;11.10;9.03;;;;;;;;;;5011327;28;20184;-90
2022/11/19 12:16:10;;;;;;;13.43;10.00;;;;;;;;;;5000309;28;20192;-90
2022/11/19 12:19:32;;;;;;;12.80;10.17;;;;;;;;;;5010683;28;20181;-89
2022/11/19 12:23:01;;;;;;;17.30;12.07;;;;;;;;;;4999712;28;20181;-90
2022/11/19 12:26:22;;;;;;;17.53;11.83;;;;;;;;;;4996341;28;20205;-90
2022/11/19 12:29:48;;;;;;;19.47;12.13;;;;;;;;;;4994998;28;20189;-90
2022/11/19 12:33:25;;;;;;;16.03;12.17;;;;;;;;;;4991333;28;20178;-90
2022/11/19 12:36:39;;;;;;;16.10;12.30;;;;;;;;;;4991881;28;20182;-90
2022/11/19 12:40:13;;;;;;;15.90;11.47;;;;;;;;;;4992533;28;20225;-90
2022/11/19 12:43:36;;;;;;;17.77;11.63;;;;;;;;;;4989721;28;20201;-90
2022/11/19 12:47:03;;;;;;;18.60;12.87;;;;;;;;;;4995645;28;20182;-90
2022/11/19 12:50:35;;;;;;;17.03;12.53;;;;;;;;;;5005748;28;20217;-89
2022/11/19 12:53:45;;;;;;;19.70;12.87;;;;;;;;;;4994672;28;20182;-90
2022/11/19 12:57:44;;;;;;;15.63;11.23;;;;;;;;;;4995046;28;20186;-90
2022/11/19 13:01:07;;;;;;;20.77;13.87;;;;;;;;;;4984880;28;20225;-90
2022/11/19 13:04:39;;;;;;;19.53;13.97;;;;;;;;;;4995210;28;20542;-91
2022/11/19 13:08:00;;;;;;;18.10;13.37;;;;;;;;;;5006157;28;20194;-90
2022/11/19 13:11:11;;;;;;;21.47;13.90;;;;;;;;;;5005373;28;20225;-90
2022/11/19 13:14:35;;;;;;;21.53;14.10;;;;;;;;;;4995196;28;20185;-90
2022/11/19 13:17:46;;;;;;;21.23;14.37;;;;;;;;;;4994676;28;20186;-89
2022/11/19 13:21:02;;;;;;;22.87;15.07;;;;;;;;;;4993795;28;20221;-90
2022/11/19 13:24:38;;;;;;;22.93;14.63;;;;;;;;;;4994780;28;20182;-90
2022/11/19 13:27:47;;;;;;;21.57;14.60;;;;;;;;;;4983915;28;20182;-90
2022/11/19 13:30:59;;;;;;;26.17;16.63;;;;;;;;;;5005002;28;20213;-90
2022/11/19 13:34:26;;;;;;;31.57;18.53;;;;;;;;;;5004717;28;20194;-90
2022/11/19 13:38:08;;;;;;;22.67;15.30;;;;;;;;;;5009774;28;20201;-87
2022/11/19 13:41:23;;;;;;;25.27;15.33;;;;;;;;;;4994445;28;20225;-84
2022/11/19 13:44:42;;;;;;;24.20;15.27;;;;;;;;;;4994914;28;20617;-88
2022/11/19 13:47:46;;;;;;;22.40;14.73;;;;;;;;;;4993748;28;20185;-88
2022/11/19 13:51:40;;;;;;;20.87;13.77;;;;;;;;;;4997576;28;20213;-88
2022/11/19 13:54:45;;;;;;;23.53;16.03;;;;;;;;;;5004843;28;20186;-88
2022/11/19 13:57:49;;;;;;;37.73;19.67;;;;;;;;;;4994159;28;20182;-84
2022/11/19 14:01:05;;;;;;;23.87;16.10;;;;;;;;;;4993165;28;20233;-89
2022/11/19 14:04:48;;;;;;;19.13;12.53;;;;;;;;;;4993447;28;20182;-89
2022/11/19 14:08:02;;;;;;;23.13;14.87;;;;;;;;;;5005296;28;20170;-88
2022/11/19 14:11:30;;;;;;;22.77;15.33;;;;;;;;;;5004729;28;20213;-88
2022/11/19 14:28:41;;;;;;;19.73;13.73;;;;;;;;;;5003723;28;20177;-90
2022/11/19 14:32:06;;;;;;;21.40;14.77;;;;;;;;;;4992634;28;20537;-89
2022/11/19 14:35:37;;;;;;;20.87;14.37;;;;;;;;;;4992428;28;20182;-90
2022/11/19 14:39:16;;;;;;;21.63;14.67;;;;;;;;;;4993009;28;20534;-90
2022/11/19 14:42:21;;;;;;;24.50;15.93;;;;;;;;;;4980411;28;20193;-90
2022/11/19 14:45:25;;;;;;;30.87;17.43;;;;;;;;;;4992282;28;20186;-90
2022/11/19 14:48:39;;;;;;;41.80;20.27;;;;;;;;;;4992999;28;20185;-86
2022/11/19 14:51:50;;;;;;;28.67;18.10;;;;;;;;;;4991974;28;20680;-88
2022/11/19 14:55:16;;;;;;;35.90;17.57;;;;;;;;;;5003528;28;20193;-89
2022/11/19 14:58:23;;;;;;;26.30;17.60;;;;;;;;;;4992254;28;20178;-88
2022/11/19 15:01:27;;;;;;;29.77;17.77;;;;;;;;;;4991580;28;20224;-89
2022/11/19 15:05:20;;;;;;;90.70;32.33;;;;;;;;;;4992182;28;20202;-89
2022/11/19 15:08:41;;;;;;;30.30;18.37;;;;;;;;;;4977201;28;20213;-89
2022/11/19 15:11:59;;;;;;;25.33;17.13;;;;;;;;;;4991820;28;20178;-88
2022/11/19 15:15:18;;;;;;;26.13;16.83;;;;;;;;;;4992379;28;20190;-88
2022/11/19 15:18:33;;;;;;;26.73;16.57;;;;;;;;;;4991747;28;20181;-88
2022/11/19 15:21:56;;;;;;;33.13;17.40;;;;;;;;;;4991436;28;20210;-88
2022/11/19 15:25:20;;;;;;;33.50;17.07;;;;;;;;;;4992420;28;20181;-88
2022/11/19 15:29:00;;;;;;;54.30;23.23;;;;;;;;;;4980356;28;20181;-88
2022/11/19 15:32:11;;;;;;;48.33;20.00;;;;;;;;;;4991757;28;20672;-89
2022/11/19 15:35:24;;;;;;;52.00;20.50;;;;;;;;;;4991878;28;20656;-88
2022/11/19 15:38:36;;;;;;;37.73;21.87;;;;;;;;;;5002628;28;20185;-89
2022/11/19 15:42:01;;;;;;;33.50;19.27;;;;;;;;;;5002936;28;20209;-88
2022/11/19 15:45:15;;;;;;;31.80;18.03;;;;;;;;;;4991442;28;20185;-89
2022/11/19 15:48:44;;;;;;;42.47;20.43;;;;;;;;;;4991159;28;20182;-89
2022/11/19 15:51:58;;;;;;;32.20;18.53;;;;;;;;;;4991276;28;20177;-88
2022/11/19 15:55:17;;;;;;;32.87;19.10;;;;;;;;;;4991156;28;20186;-88
2022/11/19 15:58:26;;;;;;;37.30;20.23;;;;;;;;;;4990786;28;20182;-89
2022/11/19 16:01:33;;;;;;;44.47;21.30;;;;;;;;;;4991066;28;20229;-88
2022/11/19 16:04:38;;;;;;;29.90;16.87;;;;;;;;;;5002107;28;20549;-88
2022/11/19 16:07:44;;;;;;;36.43;21.53;;;;;;;;;;4979870;28;20196;-88
2022/11/19 16:17:30;;;;;;;35.37;16.47;;;;;;;;;;4991120;28;20213;-88
2022/11/19 16:17:46;;;;;;;63.60;32.50;;;;;;;;;;5014401;28;20190;-89
2022/11/19 16:20:51;;;;;;;47.87;23.83;;;;;;;;;;4993416;28;20564;-89
2022/11/19 16:27:22;;;;;;;37.80;19.73;;;;;;;;;;5039704;28;20291;-89
2022/11/19 16:30:30;;;;;;;56.33;20.30;;;;;;;;;;4995040;28;20221;-88
2022/11/19 16:33:35;;;;;;;34.40;20.23;;;;;;;;;;5006072;28;20202;-88
2022/11/19 16:36:45;;;;;;;40.70;23.60;;;;;;;;;;4999707;28;20193;-88
2022/11/19 16:39:58;;;;;;;37.40;21.53;;;;;;;;;;4992333;28;20612;-88
2022/11/19 16:43:03;;;;;;;43.77;21.97;;;;;;;;;;4994767;28;20174;-88
2022/11/19 16:46:12;;;;;;;70.10;20.33;;;;;;;;;;5000894;28;20205;-88
2022/11/19 16:49:39;;;;;;;33.17;19.43;;;;;;;;;;4997263;28;20185;-88
2022/11/19 16:52:46;;;;;;;34.93;18.00;;;;;;;;;;4986689;28;20190;-88
2022/11/19 16:55:51;;;;;;;35.17;19.10;;;;;;;;;;4996674;28;20178;-88
2022/11/19 16:59:00;;;;;;;37.77;18.70;;;;;;;;;;4993186;28;20656;-88
2022/11/19 17:02:14;;;;;;;41.93;20.23;;;;;;;;;;5004594;28;20220;-88
2022/11/19 17:05:22;;;;;;;35.60;21.17;;;;;;;;;;4998661;28;20267;-88
2022/11/19 17:08:29;;;;;;;34.57;20.50;;;;;;;;;;5016591;28;20196;-89
2022/11/19 17:15:44;;;;;;;33.70;18.03;;;;;;;;;;4996833;28;20529;-89
2022/11/19 17:18:49;;;;;;;39.03;20.00;;;;;;;;;;4996425;28;20531;-89
2022/11/19 17:22:02;;;;;;;36.97;19.47;;;;;;;;;;4985219;28;20201;-89
2022/11/19 17:25:12;;;;;;;49.00;18.90;;;;;;;;;;5002678;28;20205;-88
2022/11/19 17:28:28;;;;;;;41.80;21.03;;;;;;;;;;5014558;28;20181;-88
2022/11/19 17:31:33;;;;;;;40.17;19.73;;;;;;;;;;5013211;28;20209;-88
2022/11/19 17:34:44;;;;;;;36.57;20.20;;;;;;;;;;5014393;28;20201;-88
2022/11/19 17:37:48;;;;;;;44.47;21.20;;;;;;;;;;5002813;28;20616;-88
2022/11/19 17:40:55;;;;;;;50.67;20.50;;;;;;;;;;5003795;28;20220;-88
2022/11/19 17:47:21;;;;;;;42.53;20.57;;;;;;;;;;5013351;28;20181;-87
2022/11/19 17:50:25;;;;;;;42.63;22.13;;;;;;;;;;5002173;28;20220;-88
2022/11/19 17:53:30;;;;;;;40.20;19.73;;;;;;;;;;5003125;28;20173;-88
2022/11/19 17:56:35;;;;;;;35.90;19.83;;;;;;;;;;5015319;28;20489;-88
2022/11/19 17:59:39;;;;;;;42.30;19.17;;;;;;;;;;5013054;28;20525;-88
2022/11/19 18:02:43;;;;;;;30.20;16.10;;;;;;;;;;5024050;28;20216;-87
2022/11/19 18:05:48;;;;;;;27.03;14.33;;;;;;;;;;5013170;28;20181;-88
2022/11/19 18:08:52;;;;;;;21.73;13.37;;;;;;;;;;5013130;28;20624;-87
2022/11/19 18:11:57;;;;;;;22.37;12.30;;;;;;;;;;5012926;28;20181;-87
2022/11/19 18:15:01;;;;;;;23.53;13.30;;;;;;;;;;4983742;28;20185;-86
2022/11/19 18:18:04;;;;;;;25.10;13.83;;;;;;;;;;4987949;28;20194;-86
2022/11/19 18:21:15;;;;;;;17.30;11.37;;;;;;;;;;5008983;28;20221;-86
2022/11/19 18:24:20;;;;;;;19.47;11.27;;;;;;;;;;5008630;28;20625;-86
2022/11/19 18:27:25;;;;;;;16.40;10.67;;;;;;;;;;5013202;28;20178;-86
2022/11/19 18:30:29;;;;;;;16.37;10.50;;;;;;;;;;5029805;28;20213;-86
2022/11/19 18:33:34;;;;;;;18.13;11.77;;;;;;;;;;4996098;28;20182;-86
2022/11/19 18:36:38;;;;;;;16.20;10.13;;;;;;;;;;5008418;28;20181;-86
2022/11/19 18:39:42;;;;;;;18.50;11.17;;;;;;;;;;4990968;28;20217;-86
2022/11/19 18:46:10;;;;;;;17.67;10.43;;;;;;;;;;5000884;28;20185;-87
2022/11/19 18:49:14;;;;;;;15.50;9.13;;;;;;;;;;5011397;28;20181;-86
2022/11/19 18:52:18;;;;;;;14.30;8.63;;;;;;;;;;4989159;28;20173;-86
2022/11/19 18:55:23;;;;;;;11.60;7.70;;;;;;;;;;4999531;28;20482;-86
2022/11/19 18:58:27;;;;;;;12.60;7.93;;;;;;;;;;5002063;28;20205;-87
2022/11/19 19:01:31;;;;;;;12.40;8.30;;;;;;;;;;4999452;28;20224;-86
2022/11/19 19:04:36;;;;;;;13.37;8.20;;;;;;;;;;5009103;28;20186;-86
2022/11/19 19:07:40;;;;;;;12.90;8.70;;;;;;;;;;5004770;28;20212;-86
2022/11/19 19:10:44;;;;;;;14.10;8.77;;;;;;;;;;5016332;28;20220;-86
2022/11/19 19:13:48;;;;;;;12.23;8.17;;;;;;;;;;5027244;28;20201;-86
2022/11/19 19:16:52;;;;;;;13.60;8.67;;;;;;;;;;5015827;28;20526;-86
2022/11/19 19:19:57;;;;;;;12.60;8.37;;;;;;;;;;5014866;28;20220;-86
2022/11/19 19:23:01;;;;;;;13.17;8.23;;;;;;;;;;5014506;28;20196;-86
2022/11/19 19:26:07;;;;;;;11.77;8.13;;;;;;;;;;4996712;28;20188;-86
2022/11/19 19:29:11;;;;;;;11.70;8.00;;;;;;;;;;5000590;28;20189;-86
2022/11/19 19:32:15;;;;;;;14.57;8.97;;;;;;;;;;5004472;28;20185;-86
2022/11/19 19:35:20;;;;;;;15.83;8.90;;;;;;;;;;5008196;28;20205;-86
2022/11/19 19:38:24;;;;;;;15.90;9.47;;;;;;;;;;4995542;28;20181;-87
2022/11/19 19:41:28;;;;;;;15.30;9.83;;;;;;;;;;4992814;28;20221;-86
2022/11/19 19:44:32;;;;;;;16.40;9.43;;;;;;;;;;4992587;28;20185;-86
2022/11/19 19:47:35;;;;;;;16.13;8.83;;;;;;;;;;4992569;28;20522;-86